sensor_id;sensor_type;location;lat;lon;timestamp;pressure;altitude;pressure_sealevel;temperature;humidity
63321;BME280;49449;48.800;9.534;2023-07-08T00:01:18;98630.41;;;21.53;26.89
63321;BME280;49449;48.800;9.534;2023-07-08T00:03:47;98628.63;;;21.48;26.77
63321;BME280;49449;48.800;9.534;2023-07-08T00:06:17;98623.25;;;21.48;26.76
63321;BME280;49449;48.800;9.534;2023-07-08T00:08:45;98631.72;;;21.42;26.92
63321;BME280;49449;48.800;9.534;2023-07-08T00:11:14;98627.72;;;21.39;26.76
63321;BME280;49449;48.800;9.534;2023-07-08T00:13:43;98629.13;;;21.36;27.05
63321;BME280;49449;48.800;9.534;2023-07-08T00:16:13;98620.94;;;21.28;26.78
63321;BME280;49449;48.800;9.534;2023-07-08T00:18:42;98616.66;;;21.27;27.21
63321;BME280;49449;48.800;9.534;2023-07-08T00:21:10;98613.97;;;21.27;27.05
63321;BME280;49449;48.800;9.534;2023-07-08T00:23:43;98610.00;;;21.24;27.13
63321;BME280;49449;48.800;9.534;2023-07-08T00:26:17;98611.66;;;21.20;27.18
63321;BME280;49449;48.800;9.534;2023-07-08T00:28:46;98609.59;;;21.17;27.32
63321;BME280;49449;48.800;9.534;2023-07-08T00:31:15;98611.78;;;21.15;27.21
63321;BME280;49449;48.800;9.534;2023-07-08T00:33:43;98602.22;;;21.09;27.07
63321;BME280;49449;48.800;9.534;2023-07-08T00:36:12;98605.19;;;21.07;27.03
63321;BME280;49449;48.800;9.534;2023-07-08T00:38:41;98606.09;;;21.03;27.09
63321;BME280;49449;48.800;9.534;2023-07-08T00:41:15;98600.53;;;20.99;27.41
63321;BME280;49449;48.800;9.534;2023-07-08T00:43:47;98600.91;;;20.92;27.40
63321;BME280;49449;48.800;9.534;2023-07-08T00:46:28;98611.19;;;20.85;27.65
63321;BME280;49449;48.800;9.534;2023-07-08T00:49:03;98611.19;;;20.85;27.51
63321;BME280;49449;48.800;9.534;2023-07-08T00:51:36;98603.72;;;20.82;27.63
63321;BME280;49449;48.800;9.534;2023-07-08T00:54:05;98605.69;;;20.76;27.25
63321;BME280;49449;48.800;9.534;2023-07-08T00:56:35;98610.13;;;20.67;27.51
63321;BME280;49449;48.800;9.534;2023-07-08T00:59:08;98613.13;;;20.66;27.81
63321;BME280;49449;48.800;9.534;2023-07-08T01:01:40;98619.06;;;20.63;27.68
63321;BME280;49449;48.800;9.534;2023-07-08T01:04:12;98628.19;;;20.61;27.87
63321;BME280;49449;48.800;9.534;2023-07-08T01:06:43;98615.38;;;20.58;27.80
63321;BME280;49449;48.800;9.534;2023-07-08T01:09:15;98620.53;;;20.55;27.54
63321;BME280;49449;48.800;9.534;2023-07-08T01:11:43;98615.75;;;20.52;27.84
63321;BME280;49449;48.800;9.534;2023-07-08T01:14:14;98615.75;;;20.52;27.67
63321;BME280;49449;48.800;9.534;2023-07-08T01:16:46;98612.03;;;20.48;27.69
63321;BME280;49449;48.800;9.534;2023-07-08T01:19:19;98615.03;;;20.46;27.84
63321;BME280;49449;48.800;9.534;2023-07-08T01:22:00;98605.16;;;20.41;27.65
63321;BME280;49449;48.800;9.534;2023-07-08T01:24:29;98605.72;;;20.38;27.55
63321;BME280;49449;48.800;9.534;2023-07-08T01:27:00;98607.34;;;20.39;27.93
63321;BME280;49449;48.800;9.534;2023-07-08T01:29:28;98614.56;;;20.39;27.58
63321;BME280;49449;48.800;9.534;2023-07-08T01:31:57;98622.13;;;20.37;27.64
63321;BME280;49449;48.800;9.534;2023-07-08T01:34:24;98620.31;;;20.32;27.68
63321;BME280;49449;48.800;9.534;2023-07-08T01:36:54;98619.28;;;20.28;27.53
63321;BME280;49449;48.800;9.534;2023-07-08T01:39:27;98618.75;;;20.26;27.96
63321;BME280;49449;48.800;9.534;2023-07-08T01:41:55;98610.72;;;20.26;27.82
63321;BME280;49449;48.800;9.534;2023-07-08T01:44:30;98611.88;;;20.20;27.69
63321;BME280;49449;48.800;9.534;2023-07-08T01:46:59;98602.22;;;20.19;27.71
63321;BME280;49449;48.800;9.534;2023-07-08T01:49:30;98605.47;;;20.16;27.93
63321;BME280;49449;48.800;9.534;2023-07-08T01:51:58;98602.28;;;20.14;27.76
63321;BME280;49449;48.800;9.534;2023-07-08T01:54:28;98610.41;;;20.09;27.84
63321;BME280;49449;48.800;9.534;2023-07-08T01:56:56;98598.97;;;20.03;27.73
63321;BME280;49449;48.800;9.534;2023-07-08T01:59:24;98598.75;;;19.99;28.13
63321;BME280;49449;48.800;9.534;2023-07-08T02:01:53;98595.03;;;19.95;28.21
63321;BME280;49449;48.800;9.534;2023-07-08T02:04:22;98603.59;;;19.97;28.43
63321;BME280;49449;48.800;9.534;2023-07-08T02:06:51;98603.88;;;19.96;28.32
63321;BME280;49449;48.800;9.534;2023-07-08T02:09:20;98610.31;;;19.95;28.52
63321;BME280;49449;48.800;9.534;2023-07-08T02:11:49;98602.06;;;19.91;28.53
63321;BME280;49449;48.800;9.534;2023-07-08T02:14:17;98605.03;;;19.90;28.09
63321;BME280;49449;48.800;9.534;2023-07-08T02:16:45;98606.69;;;19.85;28.52
63321;BME280;49449;48.800;9.534;2023-07-08T02:19:13;98601.91;;;19.82;28.19
63321;BME280;49449;48.800;9.534;2023-07-08T02:21:41;98611.31;;;19.80;28.15
63321;BME280;49449;48.800;9.534;2023-07-08T02:24:09;98604.06;;;19.80;28.29
63321;BME280;49449;48.800;9.534;2023-07-08T02:26:37;98606.03;;;19.75;28.82
63321;BME280;49449;48.800;9.534;2023-07-08T02:29:06;98605.06;;;19.65;29.11
63321;BME280;49449;48.800;9.534;2023-07-08T02:31:34;98609.41;;;19.61;29.07
63321;BME280;49449;48.800;9.534;2023-07-08T02:34:02;98613.41;;;19.59;28.65
63321;BME280;49449;48.800;9.534;2023-07-08T02:36:30;98616.34;;;19.62;28.61
63321;BME280;49449;48.800;9.534;2023-07-08T02:38:57;98611.00;;;19.62;28.43
63321;BME280;49449;48.800;9.534;2023-07-08T02:41:25;98615.31;;;19.58;29.09
63321;BME280;49449;48.800;9.534;2023-07-08T02:43:53;98611.53;;;19.59;29.50
63321;BME280;49449;48.800;9.534;2023-07-08T02:46:22;98612.63;;;19.58;29.41
63321;BME280;49449;48.800;9.534;2023-07-08T02:48:50;98612.13;;;19.56;29.59
63321;BME280;49449;48.800;9.534;2023-07-08T02:51:18;98612.97;;;19.52;29.77
63321;BME280;49449;48.800;9.534;2023-07-08T02:53:47;98624.00;;;19.45;29.45
63321;BME280;49449;48.800;9.534;2023-07-08T02:56:16;98625.91;;;19.44;29.70
63321;BME280;49449;48.800;9.534;2023-07-08T02:58:43;98640.34;;;19.43;29.34
63321;BME280;49449;48.800;9.534;2023-07-08T03:01:11;98639.84;;;19.41;29.26
63321;BME280;49449;48.800;9.534;2023-07-08T03:03:45;98644.69;;;19.39;29.07
63321;BME280;49449;48.800;9.534;2023-07-08T03:06:14;98647.41;;;19.34;29.48
63321;BME280;49449;48.800;9.534;2023-07-08T03:08:42;98652.88;;;19.24;29.49
63321;BME280;49449;48.800;9.534;2023-07-08T03:11:10;98648.97;;;19.11;30.50
63321;BME280;49449;48.800;9.534;2023-07-08T03:13:38;98652.28;;;18.98;30.70
63321;BME280;49449;48.800;9.534;2023-07-08T03:16:05;98655.28;;;18.96;31.05
63321;BME280;49449;48.800;9.534;2023-07-08T03:18:39;98661.16;;;18.93;30.97
63321;BME280;49449;48.800;9.534;2023-07-08T03:21:14;98673.31;;;18.80;30.81
63321;BME280;49449;48.800;9.534;2023-07-08T03:23:43;98681.03;;;18.82;30.68
63321;BME280;49449;48.800;9.534;2023-07-08T03:26:13;98670.31;;;18.82;30.71
63321;BME280;49449;48.800;9.534;2023-07-08T03:28:42;98668.69;;;18.86;30.92
63321;BME280;49449;48.800;9.534;2023-07-08T03:31:10;98675.63;;;18.87;31.01
63321;BME280;49449;48.800;9.534;2023-07-08T03:33:38;98671.63;;;18.89;31.12
63321;BME280;49449;48.800;9.534;2023-07-08T03:36:10;98673.75;;;18.92;30.72
63321;BME280;49449;48.800;9.534;2023-07-08T03:38:40;98668.66;;;18.96;31.07
63321;BME280;49449;48.800;9.534;2023-07-08T03:41:08;98663.81;;;18.98;31.29
63321;BME280;49449;48.800;9.534;2023-07-08T03:43:36;98661.94;;;18.99;30.48
63321;BME280;49449;48.800;9.534;2023-07-08T03:46:04;98684.72;;;18.96;30.04
63321;BME280;49449;48.800;9.534;2023-07-08T03:48:31;98659.81;;;18.90;29.87
63321;BME280;49449;48.800;9.534;2023-07-08T03:50:59;98661.44;;;18.91;30.08
63321;BME280;49449;48.800;9.534;2023-07-08T03:53:27;98661.69;;;18.95;29.93
63321;BME280;49449;48.800;9.534;2023-07-08T03:55:56;98673.44;;;18.99;29.70
63321;BME280;49449;48.800;9.534;2023-07-08T03:58:24;98668.97;;;18.84;29.93
63321;BME280;49449;48.800;9.534;2023-07-08T04:00:52;98666.81;;;18.86;30.30
63321;BME280;49449;48.800;9.534;2023-07-08T04:03:20;98651.50;;;18.92;30.13
63321;BME280;49449;48.800;9.534;2023-07-08T04:05:48;98669.78;;;18.85;30.23
63321;BME280;49449;48.800;9.534;2023-07-08T04:08:16;98665.22;;;18.85;30.32
63321;BME280;49449;48.800;9.534;2023-07-08T04:10:43;98658.47;;;18.93;29.85
63321;BME280;49449;48.800;9.534;2023-07-08T04:13:13;98659.53;;;18.97;30.18
63321;BME280;49449;48.800;9.534;2023-07-08T04:15:41;98662.88;;;18.79;30.35
63321;BME280;49449;48.800;9.534;2023-07-08T04:18:08;98662.88;;;18.79;30.32
63321;BME280;49449;48.800;9.534;2023-07-08T04:20:36;98666.50;;;18.93;30.29
63321;BME280;49449;48.800;9.534;2023-07-08T04:23:04;98667.81;;;19.01;29.79
63321;BME280;49449;48.800;9.534;2023-07-08T04:25:32;98673.31;;;19.15;29.79
63321;BME280;49449;48.800;9.534;2023-07-08T04:27:59;98665.75;;;19.22;29.58
63321;BME280;49449;48.800;9.534;2023-07-08T04:30:28;98667.84;;;19.30;29.86
63321;BME280;49449;48.800;9.534;2023-07-08T04:32:56;98680.59;;;19.38;29.12
63321;BME280;49449;48.800;9.534;2023-07-08T04:35:24;98675.63;;;19.26;29.86
63321;BME280;49449;48.800;9.534;2023-07-08T04:37:52;98669.19;;;19.27;30.29
63321;BME280;49449;48.800;9.534;2023-07-08T04:40:21;98663.97;;;19.41;30.11
63321;BME280;49449;48.800;9.534;2023-07-08T04:42:48;98664.94;;;19.51;30.16
63321;BME280;49449;48.800;9.534;2023-07-08T04:45:18;98664.59;;;19.62;29.61
63321;BME280;49449;48.800;9.534;2023-07-08T04:47:48;98670.13;;;19.71;29.51
63321;BME280;49449;48.800;9.534;2023-07-08T04:50:18;98666.53;;;19.81;29.22
63321;BME280;49449;48.800;9.534;2023-07-08T04:52:47;98668.56;;;19.89;28.97
63321;BME280;49449;48.800;9.534;2023-07-08T04:55:16;98662.59;;;19.97;28.90
63321;BME280;49449;48.800;9.534;2023-07-08T04:57:44;98659.28;;;20.05;28.47
63321;BME280;49449;48.800;9.534;2023-07-08T05:00:15;98652.47;;;20.13;28.37
63321;BME280;49449;48.800;9.534;2023-07-08T05:02:43;98663.34;;;20.22;28.39
63321;BME280;49449;48.800;9.534;2023-07-08T05:05:12;98664.31;;;20.31;28.42
63321;BME280;49449;48.800;9.534;2023-07-08T05:07:40;98676.16;;;20.30;27.99
63321;BME280;49449;48.800;9.534;2023-07-08T05:10:08;98666.16;;;20.36;28.18
63321;BME280;49449;48.800;9.534;2023-07-08T05:12:36;98660.63;;;20.46;27.78
63321;BME280;49449;48.800;9.534;2023-07-08T05:15:05;98658.59;;;20.57;27.76
63321;BME280;49449;48.800;9.534;2023-07-08T05:17:34;98649.81;;;20.70;27.89
63321;BME280;49449;48.800;9.534;2023-07-08T05:20:02;98658.91;;;20.88;27.34
63321;BME280;49449;48.800;9.534;2023-07-08T05:22:31;98654.13;;;21.04;27.14
63321;BME280;49449;48.800;9.534;2023-07-08T05:24:59;98651.97;;;21.20;27.26
63321;BME280;49449;48.800;9.534;2023-07-08T05:27:27;98658.47;;;21.33;26.83
63321;BME280;49449;48.800;9.534;2023-07-08T05:29:55;98656.31;;;21.49;26.85
63321;BME280;49449;48.800;9.534;2023-07-08T05:32:22;98655.25;;;21.64;26.55
63321;BME280;49449;48.800;9.534;2023-07-08T05:34:51;98660.72;;;21.59;26.74
63321;BME280;49449;48.800;9.534;2023-07-08T05:37:19;98662.03;;;21.61;26.84
63321;BME280;49449;48.800;9.534;2023-07-08T05:39:53;98659.00;;;21.77;26.62
63321;BME280;49449;48.800;9.534;2023-07-08T05:42:21;98660.63;;;21.91;26.29
63321;BME280;49449;48.800;9.534;2023-07-08T05:44:49;98653.31;;;22.06;26.18
63321;BME280;49449;48.800;9.534;2023-07-08T05:47:18;98642.09;;;22.18;26.20
63321;BME280;49449;48.800;9.534;2023-07-08T05:49:46;98648.81;;;22.29;26.11
63321;BME280;49449;48.800;9.534;2023-07-08T05:52:14;98656.38;;;22.41;26.19
63321;BME280;49449;48.800;9.534;2023-07-08T05:54:42;98654.63;;;22.59;26.04
63321;BME280;49449;48.800;9.534;2023-07-08T05:57:11;98668.50;;;22.75;26.14
63321;BME280;49449;48.800;9.534;2023-07-08T05:59:39;98660.28;;;22.94;25.54
63321;BME280;49449;48.800;9.534;2023-07-08T06:02:09;98668.13;;;23.04;25.45
63321;BME280;49449;48.800;9.534;2023-07-08T06:04:37;98667.06;;;23.14;25.41
63321;BME280;49449;48.800;9.534;2023-07-08T06:07:05;98672.19;;;23.24;24.72
63321;BME280;49449;48.800;9.534;2023-07-08T06:09:34;98675.19;;;23.22;24.92
63321;BME280;49449;48.800;9.534;2023-07-08T06:12:02;98682.97;;;23.24;25.51
63321;BME280;49449;48.800;9.534;2023-07-08T06:14:31;98686.75;;;23.23;25.25
63321;BME280;49449;48.800;9.534;2023-07-08T06:16:59;98681.38;;;23.23;25.67
63321;BME280;49449;48.800;9.534;2023-07-08T06:19:26;98684.53;;;23.16;25.32
63321;BME280;49449;48.800;9.534;2023-07-08T06:21:54;98686.22;;;23.12;25.64
63321;BME280;49449;48.800;9.534;2023-07-08T06:24:27;98686.53;;;23.11;25.57
63321;BME280;49449;48.800;9.534;2023-07-08T06:26:55;98690.03;;;23.11;25.93
63321;BME280;49449;48.800;9.534;2023-07-08T06:29:24;98689.41;;;23.14;26.15
63321;BME280;49449;48.800;9.534;2023-07-08T06:31:53;98692.59;;;23.16;26.09
63321;BME280;49449;48.800;9.534;2023-07-08T06:34:21;98690.66;;;23.08;25.77
63321;BME280;49449;48.800;9.534;2023-07-08T06:36:50;98701.22;;;23.27;25.68
63321;BME280;49449;48.800;9.534;2023-07-08T06:39:19;98704.41;;;23.29;25.59
63321;BME280;49449;48.800;9.534;2023-07-08T06:41:46;98697.59;;;23.32;25.03
63321;BME280;49449;48.800;9.534;2023-07-08T06:44:14;98702.44;;;23.43;24.96
63321;BME280;49449;48.800;9.534;2023-07-08T06:46:43;98707.75;;;23.57;24.64
63321;BME280;49449;48.800;9.534;2023-07-08T06:49:12;98715.44;;;23.73;23.98
63321;BME280;49449;48.800;9.534;2023-07-08T06:51:40;98718.16;;;23.81;23.88
63321;BME280;49449;48.800;9.534;2023-07-08T06:54:09;98720.22;;;23.85;24.07
63321;BME280;49449;48.800;9.534;2023-07-08T06:56:38;98721.66;;;23.82;24.02
63321;BME280;49449;48.800;9.534;2023-07-08T06:59:07;98724.66;;;23.80;24.00
63321;BME280;49449;48.800;9.534;2023-07-08T07:01:35;98727.34;;;23.80;24.04
63321;BME280;49449;48.800;9.534;2023-07-08T07:04:04;98730.22;;;23.84;24.36
63321;BME280;49449;48.800;9.534;2023-07-08T07:06:33;98737.41;;;23.89;24.65
63321;BME280;49449;48.800;9.534;2023-07-08T07:09:01;98731.56;;;23.95;24.24
63321;BME280;49449;48.800;9.534;2023-07-08T07:11:28;98739.22;;;24.11;24.33
63321;BME280;49449;48.800;9.534;2023-07-08T07:13:56;98744.78;;;24.14;24.73
63321;BME280;49449;48.800;9.534;2023-07-08T07:16:24;98747.34;;;24.19;24.72
63321;BME280;49449;48.800;9.534;2023-07-08T07:18:52;98735.16;;;24.22;24.71
63321;BME280;49449;48.800;9.534;2023-07-08T07:21:20;98743.06;;;24.27;24.79
63321;BME280;49449;48.800;9.534;2023-07-08T07:23:49;98734.84;;;24.32;23.91
63321;BME280;49449;48.800;9.534;2023-07-08T07:26:16;98726.88;;;24.27;23.90
63321;BME280;49449;48.800;9.534;2023-07-08T07:28:44;98735.66;;;24.33;23.92
63321;BME280;49449;48.800;9.534;2023-07-08T07:31:12;98736.75;;;24.32;23.85
63321;BME280;49449;48.800;9.534;2023-07-08T07:33:40;98737.31;;;24.11;23.45
63321;BME280;49449;48.800;9.534;2023-07-08T07:36:07;98738.31;;;24.15;24.07
63321;BME280;49449;48.800;9.534;2023-07-08T07:38:35;98745.28;;;24.25;23.86
63321;BME280;49449;48.800;9.534;2023-07-08T07:41:04;98743.59;;;24.38;23.62
63321;BME280;49449;48.800;9.534;2023-07-08T07:43:33;98745.31;;;24.34;23.88
63321;BME280;49449;48.800;9.534;2023-07-08T07:46:01;98741.66;;;24.30;24.21
63321;BME280;49449;48.800;9.534;2023-07-08T07:48:31;98751.56;;;24.43;23.94
63321;BME280;49449;48.800;9.534;2023-07-08T07:50:59;98752.38;;;24.52;24.09
63321;BME280;49449;48.800;9.534;2023-07-08T07:53:27;98755.34;;;24.42;24.04
63321;BME280;49449;48.800;9.534;2023-07-08T07:55:59;98760.75;;;24.42;23.89
63321;BME280;49449;48.800;9.534;2023-07-08T07:58:28;98755.34;;;24.33;24.28
63321;BME280;49449;48.800;9.534;2023-07-08T08:00:56;98759.13;;;24.32;24.65
63321;BME280;49449;48.800;9.534;2023-07-08T08:03:24;98755.50;;;24.46;24.26
63321;BME280;49449;48.800;9.534;2023-07-08T08:05:52;98761.91;;;24.59;24.62
63321;BME280;49449;48.800;9.534;2023-07-08T08:08:20;98761.13;;;24.67;24.17
63321;BME280;49449;48.800;9.534;2023-07-08T08:10:48;98754.78;;;24.63;24.00
63321;BME280;49449;48.800;9.534;2023-07-08T08:13:16;98759.53;;;24.57;24.59
63321;BME280;49449;48.800;9.534;2023-07-08T08:15:45;98764.63;;;24.67;24.25
63321;BME280;49449;48.800;9.534;2023-07-08T08:18:13;98772.72;;;24.76;24.37
63321;BME280;49449;48.800;9.534;2023-07-08T08:20:41;98762.41;;;24.96;24.06
63321;BME280;49449;48.800;9.534;2023-07-08T08:23:09;98757.97;;;25.08;23.77
63321;BME280;49449;48.800;9.534;2023-07-08T08:25:36;98747.13;;;25.26;24.01
63321;BME280;49449;48.800;9.534;2023-07-08T08:28:06;98763.47;;;25.47;24.20
63321;BME280;49449;48.800;9.534;2023-07-08T08:30:34;98758.50;;;25.58;23.35
63321;BME280;49449;48.800;9.534;2023-07-08T08:33:03;98759.63;;;25.74;23.61
63321;BME280;49449;48.800;9.534;2023-07-08T08:35:31;98765.41;;;26.02;23.17
63321;BME280;49449;48.800;9.534;2023-07-08T08:37:59;98766.09;;;26.29;22.91
63321;BME280;49449;48.800;9.534;2023-07-08T08:40:29;98769.66;;;26.42;22.57
63321;BME280;49449;48.800;9.534;2023-07-08T08:43:02;98769.88;;;26.58;23.12
63321;BME280;49449;48.800;9.534;2023-07-08T08:45:35;98773.66;;;26.87;22.50
63321;BME280;49449;48.800;9.534;2023-07-08T08:48:09;98770.75;;;26.92;22.30
63321;BME280;49449;48.800;9.534;2023-07-08T08:50:42;98778.63;;;27.06;21.78
63321;BME280;49449;48.800;9.534;2023-07-08T08:53:14;98773.25;;;27.18;21.89
63321;BME280;49449;48.800;9.534;2023-07-08T08:55:46;98773.84;;;27.24;21.41
63321;BME280;49449;48.800;9.534;2023-07-08T08:58:26;98771.84;;;27.21;21.47
63321;BME280;49449;48.800;9.534;2023-07-08T09:00:58;98764.28;;;27.26;21.45
63321;BME280;49449;48.800;9.534;2023-07-08T09:03:38;98763.81;;;27.24;21.25
63321;BME280;49449;48.800;9.534;2023-07-08T09:06:12;98768.78;;;27.22;21.35
63321;BME280;49449;48.800;9.534;2023-07-08T09:08:41;98766.91;;;27.35;21.91
63321;BME280;49449;48.800;9.534;2023-07-08T09:11:26;98765.47;;;27.50;20.76
63321;BME280;49449;48.800;9.534;2023-07-08T09:13:54;98758.41;;;27.70;20.86
63321;BME280;49449;48.800;9.534;2023-07-08T09:16:29;98762.59;;;27.80;20.99
63321;BME280;49449;48.800;9.534;2023-07-08T09:19:07;98753.13;;;27.98;20.20
63321;BME280;49449;48.800;9.534;2023-07-08T09:21:43;98756.84;;;28.06;20.69
63321;BME280;49449;48.800;9.534;2023-07-08T09:24:16;98762.59;;;28.17;21.10
63321;BME280;49449;48.800;9.534;2023-07-08T09:26:46;98755.94;;;28.39;20.75
63321;BME280;49449;48.800;9.534;2023-07-08T09:29:17;98756.38;;;28.41;20.30
63321;BME280;49449;48.800;9.534;2023-07-08T09:31:45;98749.69;;;28.50;19.81
63321;BME280;49449;48.800;9.534;2023-07-08T09:34:16;98750.91;;;28.65;19.29
63321;BME280;49449;48.800;9.534;2023-07-08T09:36:47;98746.34;;;28.69;20.08
63321;BME280;49449;48.800;9.534;2023-07-08T09:39:17;98754.06;;;28.67;19.41
63321;BME280;49449;48.800;9.534;2023-07-08T09:41:46;98752.69;;;28.61;19.44
63321;BME280;49449;48.800;9.534;2023-07-08T09:44:18;98770.72;;;28.66;20.27
63321;BME280;49449;48.800;9.534;2023-07-08T09:46:48;98765.84;;;28.72;20.07
63321;BME280;49449;48.800;9.534;2023-07-08T09:49:24;98760.63;;;28.79;19.98
63321;BME280;49449;48.800;9.534;2023-07-08T09:51:52;98761.88;;;29.10;19.57
63321;BME280;49449;48.800;9.534;2023-07-08T09:54:21;98753.47;;;29.15;19.36
63321;BME280;49449;48.800;9.534;2023-07-08T09:56:55;98757.75;;;28.87;19.16
63321;BME280;49449;48.800;9.534;2023-07-08T09:59:31;98753.81;;;28.85;19.22
63321;BME280;49449;48.800;9.534;2023-07-08T10:02:19;98758.44;;;28.84;19.96
63321;BME280;49449;48.800;9.534;2023-07-08T10:04:54;98756.53;;;28.85;19.81
63321;BME280;49449;48.800;9.534;2023-07-08T10:07:23;98758.63;;;28.63;20.55
63321;BME280;49449;48.800;9.534;2023-07-08T10:09:53;98770.53;;;28.34;20.52
63321;BME280;49449;48.800;9.534;2023-07-08T10:12:23;98756.84;;;28.30;21.09
63321;BME280;49449;48.800;9.534;2023-07-08T10:14:54;98758.56;;;28.10;21.04
63321;BME280;49449;48.800;9.534;2023-07-08T10:17:23;98756.63;;;28.11;21.35
63321;BME280;49449;48.800;9.534;2023-07-08T10:19:53;98754.91;;;27.94;21.36
63321;BME280;49449;48.800;9.534;2023-07-08T10:22:27;98755.94;;;27.77;21.44
63321;BME280;49449;48.800;9.534;2023-07-08T10:25:11;98754.19;;;27.60;21.56
63321;BME280;49449;48.800;9.534;2023-07-08T10:27:47;98754.16;;;27.48;21.38
63321;BME280;49449;48.800;9.534;2023-07-08T10:30:21;98742.63;;;27.51;21.62
63321;BME280;49449;48.800;9.534;2023-07-08T10:32:59;98759.69;;;27.51;22.33
63321;BME280;49449;48.800;9.534;2023-07-08T10:35:40;98755.53;;;27.54;22.28
63321;BME280;49449;48.800;9.534;2023-07-08T10:38:22;98765.53;;;27.41;21.54
63321;BME280;49449;48.800;9.534;2023-07-08T10:40:59;98773.03;;;27.44;22.39
63321;BME280;49449;48.800;9.534;2023-07-08T10:43:37;98771.06;;;27.11;22.65
63321;BME280;49449;48.800;9.534;2023-07-08T10:46:18;98768.78;;;27.01;23.05
63321;BME280;49449;48.800;9.534;2023-07-08T10:52:02;98767.00;;;27.05;23.07
63321;BME280;49449;48.800;9.534;2023-07-08T10:54:46;98760.47;;;26.85;22.86
63321;BME280;49449;48.800;9.534;2023-07-08T10:57:33;98772.41;;;27.05;22.22
63321;BME280;49449;48.800;9.534;2023-07-08T11:00:12;98756.59;;;27.07;22.07
63321;BME280;49449;48.800;9.534;2023-07-08T11:03:15;98760.72;;;27.13;21.57
63321;BME280;49449;48.800;9.534;2023-07-08T11:05:56;98756.47;;;27.25;21.51
63321;BME280;49449;48.800;9.534;2023-07-08T11:08:31;98755.75;;;27.49;21.03
63321;BME280;49449;48.800;9.534;2023-07-08T11:11:04;98750.72;;;27.72;19.93
63321;BME280;49449;48.800;9.534;2023-07-08T11:13:44;98754.00;;;27.78;20.50
63321;BME280;49449;48.800;9.534;2023-07-08T11:16:19;98746.66;;;28.03;19.75
63321;BME280;49449;48.800;9.534;2023-07-08T11:18:53;98744.28;;;28.26;19.65
63321;BME280;49449;48.800;9.534;2023-07-08T11:21:29;98746.44;;;28.08;18.40
63321;BME280;49449;48.800;9.534;2023-07-08T11:24:04;98738.84;;;28.38;18.60
63321;BME280;49449;48.800;9.534;2023-07-08T11:26:41;98739.00;;;28.58;18.95
63321;BME280;49449;48.800;9.534;2023-07-08T11:29:15;98739.81;;;28.58;18.81
63321;BME280;49449;48.800;9.534;2023-07-08T11:31:46;98738.88;;;28.66;18.30
63321;BME280;49449;48.800;9.534;2023-07-08T11:34:15;98735.06;;;28.55;18.74
63321;BME280;49449;48.800;9.534;2023-07-08T11:36:45;98726.53;;;28.81;18.56
63321;BME280;49449;48.800;9.534;2023-07-08T11:39:44;98727.34;;;28.98;18.16
63321;BME280;49449;48.800;9.534;2023-07-08T11:42:20;98729.28;;;28.97;18.02
63321;BME280;49449;48.800;9.534;2023-07-08T11:44:51;98737.44;;;28.97;18.16
63321;BME280;49449;48.800;9.534;2023-07-08T11:47:32;98732.84;;;29.14;17.73
63321;BME280;49449;48.800;9.534;2023-07-08T11:50:03;98728.69;;;29.32;18.60
63321;BME280;49449;48.800;9.534;2023-07-08T11:52:51;98715.53;;;29.34;18.11
63321;BME280;49449;48.800;9.534;2023-07-08T11:55:24;98718.00;;;29.55;17.94
63321;BME280;49449;48.800;9.534;2023-07-08T11:57:56;98712.63;;;29.59;17.63
63321;BME280;49449;48.800;9.534;2023-07-08T12:00:25;98717.28;;;29.74;17.45
63321;BME280;49449;48.800;9.534;2023-07-08T12:02:55;98712.22;;;29.57;17.20
63321;BME280;49449;48.800;9.534;2023-07-08T12:05:41;98715.09;;;29.48;17.28
63321;BME280;49449;48.800;9.534;2023-07-08T12:08:12;98703.16;;;29.53;16.92
63321;BME280;49449;48.800;9.534;2023-07-08T12:10:47;98704.28;;;29.68;17.65
63321;BME280;49449;48.800;9.534;2023-07-08T12:13:18;98704.84;;;29.73;17.21
63321;BME280;49449;48.800;9.534;2023-07-08T12:15:46;98709.13;;;29.74;17.09
63321;BME280;49449;48.800;9.534;2023-07-08T12:18:15;98700.50;;;29.88;17.36
63321;BME280;49449;48.800;9.534;2023-07-08T12:20:46;98697.47;;;29.74;16.99
63321;BME280;49449;48.800;9.534;2023-07-08T12:23:17;98694.91;;;29.81;17.23
63321;BME280;49449;48.800;9.534;2023-07-08T12:25:46;98690.34;;;29.85;17.05
63321;BME280;49449;48.800;9.534;2023-07-08T12:28:15;98700.09;;;29.70;16.77
63321;BME280;49449;48.800;9.534;2023-07-08T12:30:44;98697.63;;;29.81;17.10
63321;BME280;49449;48.800;9.534;2023-07-08T12:33:13;98681.47;;;29.72;17.26
63321;BME280;49449;48.800;9.534;2023-07-08T12:35:43;98683.22;;;29.80;16.71
63321;BME280;49449;48.800;9.534;2023-07-08T12:38:18;98680.66;;;29.88;16.98
63321;BME280;49449;48.800;9.534;2023-07-08T12:40:48;98682.94;;;30.02;16.97
63321;BME280;49449;48.800;9.534;2023-07-08T12:43:17;98682.59;;;29.87;16.75
63321;BME280;49449;48.800;9.534;2023-07-08T12:45:46;98680.44;;;29.77;17.23
63321;BME280;49449;48.800;9.534;2023-07-08T12:48:13;98678.72;;;29.88;17.14
63321;BME280;49449;48.800;9.534;2023-07-08T12:50:41;98679.47;;;29.69;17.59
63321;BME280;49449;48.800;9.534;2023-07-08T12:53:10;98676.81;;;29.89;17.56
63321;BME280;49449;48.800;9.534;2023-07-08T12:55:40;98679.84;;;30.03;17.26
63321;BME280;49449;48.800;9.534;2023-07-08T12:58:13;98674.78;;;29.86;17.46
63321;BME280;49449;48.800;9.534;2023-07-08T13:00:41;98676.97;;;29.96;16.92
63321;BME280;49449;48.800;9.534;2023-07-08T13:03:13;98669.31;;;30.02;17.07
63321;BME280;49449;48.800;9.534;2023-07-08T13:05:42;98680.63;;;30.19;17.69
63321;BME280;49449;48.800;9.534;2023-07-08T13:08:11;98672.59;;;30.27;17.05
63321;BME280;49449;48.800;9.534;2023-07-08T13:10:40;98672.09;;;30.41;16.96
63321;BME280;49449;48.800;9.534;2023-07-08T13:13:15;98669.94;;;30.50;17.49
63321;BME280;49449;48.800;9.534;2023-07-08T13:15:44;98673.69;;;30.61;17.07
63321;BME280;49449;48.800;9.534;2023-07-08T13:18:14;98674.22;;;30.67;17.07
63321;BME280;49449;48.800;9.534;2023-07-08T13:20:45;98668.59;;;30.40;16.42